Time;durP1;ratioP1;P1;durP2;ratioP2;P2;SDS_P1;SDS_P2;PMS_P1;PMS_P2;Temp;Humidity;BMP_temperature;BMP_pressure;BME280_temperature;BME280_humidity;BME280_pressure;Samples;Min_cycle;Max_cycle;Signal;HPM_P1;HPM_P2
2022/09/17 00:01:04;;;;;;;8.53;2.60;;;;;;;12.97;86.18;100359.34;6296642;28;20238;-74
2022/09/17 00:04:25;;;;;;;3.43;2.43;;;;;;;12.95;86.44;100363.22;6283801;28;20222;-74
2022/09/17 00:07:46;;;;;;;3.03;1.93;;;;;;;12.99;85.99;100367.28;6285722;28;20234;-74
2022/09/17 00:11:08;;;;;;;6.30;2.30;;;;;;;12.99;85.86;100364.56;6264432;28;22575;-74
2022/09/17 00:14:30;;;;;;;6.90;1.97;;;;;;;12.95;86.12;100368.63;6289127;28;20226;-74
2022/09/17 00:17:54;;;;;;;5.27;2.07;;;;;;;12.85;87.25;100361.47;6285128;28;20317;-76
2022/09/17 00:21:16;;;;;;;6.90;4.13;;;;;;;12.83;87.92;100368.06;6285732;28;20227;-74
2022/09/17 00:24:37;;;;;;;11.03;3.53;;;;;;;12.85;88.31;100369.59;6284419;28;20250;-73
2022/09/17 00:27:58;;;;;;;6.27;2.20;;;;;;;12.91;87.86;100375.38;6285626;28;20250;-74
2022/09/17 00:31:21;;;;;;;6.53;2.23;;;;;;;12.85;87.79;100375.00;6278559;28;20223;-74
2022/09/17 00:34:43;;;;;;;6.03;2.53;;;;;;;12.87;87.90;100382.13;6271939;28;20305;-74
2022/09/17 00:38:04;;;;;;;8.23;3.33;;;;;;;12.91;88.10;100388.91;6285440;28;20314;-74
2022/09/17 00:41:27;;;;;;;5.20;1.50;;;;;;;12.89;87.87;100380.97;6284966;28;20322;-74
2022/09/17 00:44:50;;;;;;;14.33;3.53;;;;;;;12.94;88.03;100391.25;6269294;28;20230;-74
2022/09/17 00:48:12;;;;;;;5.17;2.13;;;;;;;12.87;87.63;100385.66;6286992;28;20230;-74
2022/09/17 00:51:37;;;;;;;7.77;1.97;;;;;;;12.87;86.94;100384.84;6270797;28;20283;-74
2022/09/17 00:55:04;;;;;;;9.37;3.23;;;;;;;12.78;86.64;100395.63;6286430;28;20227;-75
2022/09/17 00:58:26;;;;;;;2.57;1.93;;;;;;;12.74;86.69;100399.66;6271610;28;20234;-74
2022/09/17 01:01:48;;;;;;;3.53;3.20;;;;;;;12.69;86.67;100391.16;6280217;28;21048;-74
2022/09/17 01:05:11;;;;;;;5.70;1.73;;;;;;;12.74;86.64;100398.81;6283551;28;20230;-75
2022/09/17 01:08:42;;;;;;;6.07;3.37;;;;;;;12.68;87.24;100392.16;6280471;28;20639;-74
2022/09/17 01:12:21;;;;;;;16.20;3.07;;;;;;;12.57;86.96;100397.88;6286884;28;20321;-74
2022/09/17 01:15:49;;;;;;;5.23;2.93;;;;;;;12.57;87.61;100392.47;6268481;28;20317;-73
2022/09/17 01:19:32;;;;;;;4.33;1.83;;;;;;;12.48;87.45;100403.38;6277094;28;20229;-75
2022/09/17 01:23:05;;;;;;;4.17;2.37;;;;;;;12.44;87.66;100399.31;6284634;28;20914;-74
2022/09/17 01:26:49;;;;;;;5.07;1.47;;;;;;;12.41;88.37;100402.34;6287017;28;20234;-73
2022/09/17 01:30:31;;;;;;;4.50;3.23;;;;;;;12.41;88.26;100402.34;6291993;28;20314;-74
2022/09/17 01:34:01;;;;;;;2.53;1.23;;;;;;;12.42;88.02;100402.16;6275442;28;20600;-74
2022/09/17 01:37:31;;;;;;;3.23;2.30;;;;;;;12.33;88.37;100397.72;6276008;28;20233;-74
2022/09/17 01:41:01;;;;;;;5.17;1.63;;;;;;;12.32;88.00;100404.13;6283256;28;20230;-74
2022/09/17 01:44:29;;;;;;;4.23;1.70;;;;;;;12.31;88.60;100401.56;6283897;28;20230;-74
2022/09/17 01:48:14;;;;;;;5.43;2.40;;;;;;;12.29;87.58;100409.84;6279593;28;20250;-73
2022/09/17 01:51:38;;;;;;;2.90;1.63;;;;;;;12.34;86.60;100410.22;6271273;28;20230;-74
2022/09/17 01:55:03;;;;;;;4.33;1.77;;;;;;;12.37;86.87;100411.78;6283135;28;20230;-73
2022/09/17 01:58:28;;;;;;;4.00;1.63;;;;;;;12.41;87.05;100415.84;6285932;28;20226;-74
2022/09/17 02:01:54;;;;;;;6.07;1.80;;;;;;;12.37;87.09;100418.00;6283446;28;20499;-74
2022/09/17 02:05:21;;;;;;;3.83;1.67;;;;;;;12.36;86.82;100418.19;6254762;28;20238;-74
2022/09/17 02:08:47;;;;;;;3.50;1.63;;;;;;;12.32;85.99;100412.25;6283703;28;20230;-74
2022/09/17 02:12:15;;;;;;;2.07;1.73;;;;;;;12.33;86.39;100416.63;6283021;28;20883;-74
2022/09/17 02:15:43;;;;;;;4.73;2.97;;;;;;;12.31;86.30;100409.69;6274441;28;20234;-74
2022/09/17 02:19:08;;;;;;;4.40;1.63;;;;;;;12.20;87.36;100428.88;6283629;28;20624;-74
2022/09/17 02:22:37;;;;;;;7.83;2.60;;;;;;;12.17;87.78;100413.81;6289294;28;20557;-74
2022/09/17 02:26:03;;;;;;;5.30;2.80;;;;;;;12.21;87.26;100431.41;6265135;28;20254;-74
2022/09/17 02:29:34;;;;;;;4.57;2.87;;;;;;;12.21;88.02;100436.81;6295350;28;20233;-73
2022/09/17 02:32:55;;;;;;;3.83;1.63;;;;;;;12.25;88.27;100429.25;6270013;28;20250;-74
2022/09/17 02:36:16;;;;;;;3.57;1.80;;;;;;;12.27;88.64;100438.03;6252679;28;20227;-73
2022/09/17 02:39:38;;;;;;;9.17;2.03;;;;;;;12.32;88.70;100430.31;6280915;28;20238;-73
2022/09/17 02:43:10;;;;;;;6.73;1.50;;;;;;;12.33;88.52;100432.03;6292857;28;20226;-73
2022/09/17 02:46:52;;;;;;;3.07;1.80;;;;;;;12.17;89.52;100431.88;6264306;28;20230;-73
2022/09/17 02:50:27;;;;;;;5.13;2.57;;;;;;;12.12;89.16;100423.41;6276641;28;20238;-74
2022/09/17 02:54:00;;;;;;;10.73;1.67;;;;;;;12.09;89.46;100427.28;6282975;28;20950;-74
2022/09/17 02:57:30;;;;;;;11.07;2.63;;;;;;;12.10;89.98;100431.66;6280842;28;20226;-74
2022/09/17 03:00:52;;;;;;;6.03;1.83;;;;;;;12.17;89.22;100426.47;6279020;28;20229;-73
2022/09/17 03:04:16;;;;;;;3.80;1.83;;;;;;;12.10;89.75;100426.25;6283380;28;20227;-72
2022/09/17 03:07:38;;;;;;;4.13;1.70;;;;;;;12.16;89.21;100419.41;6270564;28;20235;-72
2022/09/17 03:11:00;;;;;;;3.43;2.07;;;;;;;12.10;89.17;100425.44;6280884;28;20267;-74
2022/09/17 03:14:22;;;;;;;3.87;1.37;;;;;;;12.02;89.31;100427.06;6276943;28;20238;-73
2022/09/17 03:17:43;;;;;;;4.67;1.30;;;;;;;12.11;88.54;100425.25;6283752;28;20251;-74
2022/09/17 03:21:04;;;;;;;4.20;2.23;;;;;;;12.08;88.85;100412.06;6280004;28;21248;-74
2022/09/17 03:24:28;;;;;;;5.57;2.07;;;;;;;12.11;89.04;100424.41;6286320;28;20246;-74
2022/09/17 03:27:49;;;;;;;3.97;1.43;;;;;;;12.15;88.83;100423.09;6292476;28;20230;-74
2022/09/17 03:31:11;;;;;;;5.37;1.63;;;;;;;12.07;88.77;100425.72;6274963;28;20254;-74
2022/09/17 03:34:32;;;;;;;4.00;1.53;;;;;;;12.12;89.06;100432.34;6292421;28;20233;-76
2022/09/17 03:37:53;;;;;;;5.90;2.53;;;;;;;12.17;88.20;100427.34;6259905;28;20222;-74
2022/09/17 03:41:14;;;;;;;5.70;1.20;;;;;;;12.18;88.58;100430.88;6285906;28;20258;-74
2022/09/17 03:44:35;;;;;;;3.70;1.50;;;;;;;12.10;89.15;100437.06;6291185;28;20242;-75
2022/09/17 03:47:57;;;;;;;1.97;1.33;;;;;;;12.13;89.09;100428.66;6292346;28;20218;-74
2022/09/17 03:51:19;;;;;;;1.40;0.90;;;;;;;12.11;89.12;100443.31;6300245;28;20725;-75
2022/09/17 03:54:39;;;;;;;7.70;2.47;;;;;;;12.10;89.38;100441.66;6296749;28;21904;-75
2022/09/17 03:58:00;;;;;;;3.60;2.00;;;;;;;12.07;89.35;100434.69;6278316;28;20595;-74
2022/09/17 04:01:21;;;;;;;1.30;1.10;;;;;;;11.99;89.20;100443.56;6292142;28;20407;-73
2022/09/17 04:04:44;;;;;;;5.50;1.60;;;;;;;12.01;88.37;100446.13;6273425;28;22289;-74
2022/09/17 04:08:05;;;;;;;1.47;1.17;;;;;;;11.94;88.25;100445.91;6290054;28;20332;-74
2022/09/17 04:11:26;;;;;;;3.40;2.03;;;;;;;11.93;88.12;100449.59;6289341;28;20234;-74
2022/09/17 04:14:50;;;;;;;2.20;1.23;;;;;;;11.87;88.90;100447.50;6285625;28;20226;-74
2022/09/17 04:18:11;;;;;;;1.10;1.00;;;;;;;11.92;88.75;100445.19;6287926;28;20234;-74
2022/09/17 04:21:33;;;;;;;4.57;2.03;;;;;;;11.92;88.51;100452.44;6289084;28;20361;-74
2022/09/17 04:24:54;;;;;;;1.77;1.30;;;;;;;11.83;88.28;100446.13;6275637;28;20325;-75
2022/09/17 04:28:15;;;;;;;3.80;1.33;;;;;;;11.80;88.56;100446.44;6282526;28;20258;-73
2022/09/17 04:31:36;;;;;;;9.00;1.50;;;;;;;11.72;88.72;100448.22;6280713;28;20793;-73
2022/09/17 04:34:57;;;;;;;2.17;1.37;;;;;;;11.74;89.37;100449.78;6278194;28;20231;-73
2022/09/17 04:38:20;;;;;;;3.40;1.50;;;;;;;11.77;89.40;100454.00;6279586;28;20276;-75
2022/09/17 04:41:42;;;;;;;1.53;1.13;;;;;;;11.84;89.14;100465.88;6269713;28;20318;-74
2022/09/17 04:45:03;;;;;;;13.67;1.90;;;;;;;11.78;89.79;100480.88;6278818;28;20243;-74
2022/09/17 04:48:24;;;;;;;4.47;1.67;;;;;;;11.81;89.51;100480.53;6277801;28;20253;-74
2022/09/17 04:51:45;;;;;;;2.97;1.90;;;;;;;11.88;89.71;100478.94;6281536;28;20226;-74
2022/09/17 04:55:09;;;;;;;3.93;1.40;;;;;;;11.75;88.96;100483.00;6279442;28;20261;-73
2022/09/17 04:58:31;;;;;;;2.90;2.70;;;;;;;11.75;88.43;100472.19;6283381;28;20219;-74
2022/09/17 05:01:52;;;;;;;3.60;1.37;;;;;;;11.71;89.44;100471.66;6259930;28;20238;-74
2022/09/17 05:05:15;;;;;;;2.17;1.27;;;;;;;11.78;88.50;100471.91;6276818;28;20227;-74
2022/09/17 05:08:36;;;;;;;1.40;1.00;;;;;;;11.62;88.81;100485.22;6277784;28;20235;-74
2022/09/17 05:11:58;;;;;;;5.70;2.27;;;;;;;11.64;88.98;100483.22;6281456;28;20762;-73
2022/09/17 05:15:19;;;;;;;4.07;1.70;;;;;;;11.72;88.90;100481.44;6278897;28;20841;-73
2022/09/17 05:18:41;;;;;;;3.00;1.00;;;;;;;11.74;88.28;100475.91;6284084;28;20549;-74
2022/09/17 05:22:02;;;;;;;7.80;3.63;;;;;;;11.71;89.07;100484.31;6282840;28;20222;-74
2022/09/17 05:25:23;;;;;;;4.67;1.70;;;;;;;11.62;89.18;100490.63;6283274;28;20226;-74
2022/09/17 05:28:46;;;;;;;1.23;1.13;;;;;;;11.60;89.06;100474.53;6294813;28;20226;-74
2022/09/17 05:32:07;;;;;;;5.73;2.90;;;;;;;11.68;88.92;100484.63;6288624;28;20921;-74
2022/09/17 05:35:28;;;;;;;3.53;1.53;;;;;;;11.57;89.58;100488.38;6284947;28;20226;-74
2022/09/17 05:38:49;;;;;;;6.27;1.97;;;;;;;11.63;89.74;100490.44;6268417;28;20648;-73
2022/09/17 05:42:10;;;;;;;2.80;2.07;;;;;;;11.56;89.67;100488.50;6285490;28;20230;-75
2022/09/17 05:45:33;;;;;;;5.93;2.17;;;;;;;11.70;89.79;100493.44;6275132;28;20230;-74
2022/09/17 05:48:55;;;;;;;3.50;1.40;;;;;;;11.81;90.03;100498.59;6289639;28;20234;-75
2022/09/17 05:52:16;;;;;;;3.73;2.13;;;;;;;11.76;89.73;100498.22;6283591;28;20592;-75
2022/09/17 05:55:38;;;;;;;4.03;1.33;;;;;;;11.63;90.48;100501.25;6286534;28;20230;-74
2022/09/17 05:58:59;;;;;;;4.47;1.27;;;;;;;11.71;90.37;100503.22;6280000;28;20298;-74
2022/09/17 06:02:22;;;;;;;3.87;1.47;;;;;;;11.79;89.14;100497.88;6253760;28;20262;-75
2022/09/17 06:05:43;;;;;;;4.83;3.73;;;;;;;11.75;89.08;100502.75;6269139;28;22785;-74
2022/09/17 06:09:04;;;;;;;3.10;1.47;;;;;;;11.77;89.33;100510.69;6268859;28;20218;-74
2022/09/17 06:12:25;;;;;;;6.80;1.23;;;;;;;11.82;87.94;100519.22;6281673;28;20611;-74
2022/09/17 06:15:50;;;;;;;1.87;1.10;;;;;;;11.81;88.63;100506.69;6278311;28;20234;-73
2022/09/17 06:19:12;;;;;;;5.17;2.57;;;;;;;11.69;88.83;100507.91;6284626;28;20223;-74
2022/09/17 06:22:36;;;;;;;4.10;1.90;;;;;;;11.70;89.51;100506.94;6281712;28;20253;-74
2022/09/17 06:25:58;;;;;;;1.70;1.60;;;;;;;11.62;89.19;100513.03;6281667;28;20230;-75
2022/09/17 06:29:19;;;;;;;1.53;0.90;;;;;;;11.68;89.70;100517.84;6291363;28;20238;-74
2022/09/17 06:32:40;;;;;;;4.43;2.00;;;;;;;11.56;89.52;100512.78;6285538;28;20608;-74
2022/09/17 06:36:04;;;;;;;4.90;1.47;;;;;;;11.56;89.83;100524.44;6278022;28;20242;-74
2022/09/17 06:39:25;;;;;;;4.37;2.13;;;;;;;11.66;88.81;100533.38;6285454;28;20935;-74
2022/09/17 06:42:47;;;;;;;3.83;1.20;;;;;;;11.64;87.93;100538.03;6289190;28;20231;-74
2022/09/17 06:46:07;;;;;;;6.03;1.57;;;;;;;11.75;86.46;100537.00;6284425;28;20230;-74
2022/09/17 06:49:30;;;;;;;3.10;1.40;;;;;;;11.93;86.27;100535.19;6286142;28;20302;-75
2022/09/17 06:52:56;;;;;;;4.87;1.23;;;;;;;12.02;86.10;100542.38;6292245;28;20245;-74
2022/09/17 06:56:17;;;;;;;3.00;2.30;;;;;;;12.15;84.29;100533.88;6281239;28;20230;-74
2022/09/17 06:59:38;;;;;;;2.53;1.90;;;;;;;12.31;83.28;100534.88;6289431;28;20604;-75
2022/09/17 07:03:00;;;;;;;2.23;1.17;;;;;;;12.19;84.33;100528.00;6287030;28;20317;-75
2022/09/17 07:06:21;;;;;;;1.50;1.40;;;;;;;12.39;83.20;100528.72;6285396;28;20234;-75
2022/09/17 07:09:43;;;;;;;0.80;0.50;;;;;;;12.39;81.69;100529.53;6286437;28;20309;-74
2022/09/17 07:13:05;;;;;;;1.70;1.00;;;;;;;12.52;80.74;100527.28;6282710;28;22095;-75
2022/09/17 07:16:26;;;;;;;1.47;1.37;;;;;;;12.74;80.44;100529.50;6276430;28;20683;-75
2022/09/17 07:19:47;;;;;;;0.80;0.80;;;;;;;12.88;78.85;100528.03;6263272;28;20226;-75
2022/09/17 07:23:08;;;;;;;1.50;0.70;;;;;;;13.39;77.87;100538.00;6282529;28;20238;-75
2022/09/17 07:26:30;;;;;;;2.97;0.90;;;;;;;13.26;78.18;100538.47;6290688;28;20231;-75
2022/09/17 07:29:51;;;;;;;0.67;0.63;;;;;;;13.33;76.33;100544.91;6297279;28;20225;-75
2022/09/17 07:33:12;;;;;;;2.57;0.80;;;;;;;13.44;76.02;100550.03;6280255;28;20227;-75
2022/09/17 07:36:33;;;;;;;1.47;0.77;;;;;;;13.21;76.34;100553.47;6281470;28;20225;-76
2022/09/17 07:39:53;;;;;;;0.80;0.70;;;;;;;13.10;76.21;100546.47;6274376;28;20655;-74
2022/09/17 07:43:16;;;;;;;1.83;0.73;;;;;;;12.92;77.49;100558.31;6279618;28;21267;-74
2022/09/17 07:46:36;;;;;;;1.23;0.90;;;;;;;13.10;77.61;100554.59;6270411;28;20250;-73
2022/09/17 07:49:57;;;;;;;3.13;1.00;;;;;;;13.24;76.92;100536.91;6293160;28;20231;-73
2022/09/17 07:53:18;;;;;;;0.70;0.70;;;;;;;13.08;76.67;100548.50;6290754;28;20492;-76
2022/09/17 07:56:39;;;;;;;2.13;0.73;;;;;;;13.43;76.03;100539.38;6275082;28;21380;-74
2022/09/17 08:00:02;;;;;;;0.73;0.60;;;;;;;13.55;75.59;100544.34;6287702;28;20222;-74
2022/09/17 08:03:32;;;;;;;2.20;0.80;;;;;;;13.65;74.46;100533.34;6279849;28;20253;-76
2022/09/17 08:06:53;;;;;;;2.37;1.20;;;;;;;13.57;75.20;100531.47;6268767;28;20223;-75
2022/09/17 08:10:14;;;;;;;5.93;1.00;;;;;;;13.69;74.61;100533.88;6286558;28;20611;-74
2022/09/17 08:13:35;;;;;;;1.23;1.00;;;;;;;14.04;74.09;100534.47;6281708;28;20249;-74
2022/09/17 08:16:58;;;;;;;1.00;0.80;;;;;;;13.76;73.01;100534.91;6279709;28;20241;-76
2022/09/17 08:20:19;;;;;;;3.00;2.40;;;;;;;13.52;74.00;100520.28;6278129;28;20226;-75
2022/09/17 08:23:41;;;;;;;2.10;0.90;;;;;;;13.66;72.78;100528.78;6279927;28;20223;-75
2022/09/17 08:27:03;;;;;;;4.43;1.27;;;;;;;13.52;74.10;100524.84;6271703;28;20250;-74
2022/09/17 08:30:24;;;;;;;2.63;0.80;;;;;;;13.56;73.46;100518.09;6280926;28;20223;-75
2022/09/17 08:33:46;;;;;;;2.23;1.73;;;;;;;13.26;74.34;100524.91;6279044;28;20230;-75
2022/09/17 08:37:07;;;;;;;2.03;0.70;;;;;;;13.35;74.57;100533.94;6270790;28;20328;-75
2022/09/17 08:40:28;;;;;;;1.70;1.00;;;;;;;13.28;74.48;100538.28;6286648;28;20251;-74
2022/09/17 08:43:55;;;;;;;1.93;1.43;;;;;;;13.71;73.85;100526.44;6275071;28;20226;-75
2022/09/17 08:47:29;;;;;;;1.50;0.80;;;;;;;13.99;73.01;100522.44;6268956;28;20230;-75
2022/09/17 08:50:52;;;;;;;4.40;1.30;;;;;;;14.13;71.73;100511.78;6278427;28;20233;-75
2022/09/17 08:54:19;;;;;;;0.80;0.80;;;;;;;14.01;71.31;100507.72;6276298;28;20230;-75
2022/09/17 08:57:48;;;;;;;1.20;0.57;;;;;;;13.82;71.83;100518.84;6275392;28;20231;-75
2022/09/17 09:01:27;;;;;;;0.50;0.50;;;;;;;13.76;73.27;100505.97;6284064;28;20234;-74
2022/09/17 09:05:14;;;;;;;0.80;0.67;;;;;;;13.18;74.73;100519.47;6287681;28;20222;-74
2022/09/17 09:08:41;;;;;;;1.70;0.70;;;;;;;13.73;73.56;100517.13;6279873;28;20230;-75
2022/09/17 09:12:12;;;;;;;1.40;1.17;;;;;;;13.89;72.20;100505.50;6258286;28;20234;-75
2022/09/17 09:15:40;;;;;;;1.03;0.80;;;;;;;13.79;72.83;100507.50;6272213;28;20781;-74
2022/09/17 09:19:12;;;;;;;2.77;1.50;;;;;;;14.02;70.10;100519.38;6289077;28;20320;-75
2022/09/17 09:22:45;;;;;;;0.50;0.50;;;;;;;13.26;71.55;100524.06;6276348;28;20599;-75
2022/09/17 09:26:15;;;;;;;0.50;0.40;;;;;;;13.44;69.96;100513.97;6277552;28;20230;-76
2022/09/17 09:29:43;;;;;;;3.17;0.60;;;;;;;13.51;68.84;100517.75;6277098;28;20507;-73
2022/09/17 09:33:13;;;;;;;0.70;0.53;;;;;;;13.81;68.70;100522.56;6276859;28;20230;-74
2022/09/17 09:36:34;;;;;;;1.13;0.70;;;;;;;14.08;68.35;100511.44;6275904;28;20318;-76
2022/09/17 09:40:01;;;;;;;7.00;0.93;;;;;;;14.11;67.63;100521.09;6276375;28;20270;-74
2022/09/17 09:43:37;;;;;;;2.50;0.63;;;;;;;14.36;66.01;100526.41;6272641;28;20230;-73
2022/09/17 09:47:14;;;;;;;0.60;0.50;;;;;;;14.55;65.61;100508.94;6279525;28;20582;-74
2022/09/17 09:50:47;;;;;;;1.93;0.40;;;;;;;14.95;63.65;100513.47;6269143;28;20234;-73
2022/09/17 09:54:26;;;;;;;1.13;0.23;;;;;;;15.58;62.79;100506.13;6273263;28;20312;-74
2022/09/17 09:57:49;;;;;;;0.43;0.40;;;;;;;15.39;61.93;100514.69;6282496;28;20226;-75
2022/09/17 10:01:14;;;;;;;2.50;0.40;;;;;;;15.91;62.08;100515.81;6269228;28;20269;-73
2022/09/17 10:04:35;;;;;;;0.67;0.40;;;;;;;15.88;61.98;100521.59;6265881;28;20258;-73
2022/09/17 10:07:57;;;;;;;1.03;1.00;;;;;;;15.74;61.59;100522.38;6277563;28;21425;-75
2022/09/17 10:11:21;;;;;;;0.20;0.20;;;;;;;15.62;60.69;100520.22;6280917;28;20250;-75
2022/09/17 10:14:44;;;;;;;1.10;0.43;;;;;;;15.28;60.70;100516.94;6272439;28;20564;-75
2022/09/17 10:18:17;;;;;;;2.50;0.50;;;;;;;14.54;62.65;100517.28;6288331;28;22311;-75
2022/09/17 10:21:39;;;;;;;0.53;0.27;;;;;;;14.78;63.66;100511.81;6272299;28;20218;-75
2022/09/17 10:25:02;;;;;;;2.30;1.13;;;;;;;14.73;64.30;100519.59;6291025;28;21540;-76
2022/09/17 10:28:30;;;;;;;1.27;0.40;;;;;;;15.23;62.64;100511.19;6285186;28;20227;-74
2022/09/17 10:31:53;;;;;;;0.67;0.40;;;;;;;14.32;66.19;100508.78;6277492;28;20229;-74
2022/09/17 10:35:33;;;;;;;3.57;1.00;;;;;;;14.38;67.49;100502.69;6293967;28;20234;-77
2022/09/17 10:38:54;;;;;;;1.00;0.30;;;;;;;14.63;65.57;100498.09;6288988;28;20227;-75
2022/09/17 10:42:17;;;;;;;1.37;0.60;;;;;;;14.73;65.67;100498.75;6286626;28;20226;-74
2022/09/17 10:45:42;;;;;;;1.30;0.50;;;;;;;14.39;66.35;100501.66;6267077;28;20223;-74
2022/09/17 10:49:10;;;;;;;0.57;0.37;;;;;;;14.52;66.11;100497.59;6283051;28;20234;-75
2022/09/17 10:52:35;;;;;;;0.83;0.70;;;;;;;13.38;69.74;100504.66;6266930;28;20230;-75
2022/09/17 10:56:09;;;;;;;0.67;0.63;;;;;;;14.15;67.82;100500.78;6282038;28;20226;-74
2022/09/17 10:59:58;;;;;;;0.83;0.83;;;;;;;14.57;66.91;100484.34;6285197;28;20226;-75
2022/09/17 11:03:54;;;;;;;2.23;0.63;;;;;;;18.94;53.24;100460.56;6284881;28;20815;-75
2022/09/17 11:07:39;;;;;;;1.17;0.30;;;;;;;16.65;60.13;100471.56;6294972;28;20225;-77
2022/09/17 11:11:10;;;;;;;1.60;0.70;;;;;;;15.30;64.78;100466.00;6268744;28;20235;-75
2022/09/17 11:14:49;;;;;;;0.40;0.40;;;;;;;15.79;64.01;100476.47;6287462;28;20218;-75
2022/09/17 11:18:32;;;;;;;1.27;0.70;;;;;;;15.56;64.14;100472.84;6279352;28;20223;-75
2022/09/17 11:22:01;;;;;;;4.75;1.63;;;;;;;17.97;57.26;100468.72;6287390;28;20600;-75
2022/09/17 11:25:41;;;;;;;1.55;0.57;;;;;;;17.28;57.55;100462.00;6270284;28;20294;-75
2022/09/17 11:29:23;;;;;;;2.15;0.82;;;;;;;16.33;60.59;100477.28;6281393;27;20238;-77
2022/09/17 11:33:29;;;;;;;1.08;0.95;;;;;;;15.32;63.77;100472.09;6271630;28;22124;-74
2022/09/17 11:36:57;;;;;;;1.58;1.10;;;;;;;16.24;61.62;100481.06;6240281;28;21257;-77
2022/09/17 11:40:25;;;;;;;1.88;0.95;;;;;;;15.87;62.10;100478.31;6275619;28;20233;-77
2022/09/17 11:43:50;;;;;;;0.73;0.73;;;;;;;20.16;50.14;100473.31;6280533;28;20317;-76
2022/09/17 11:47:18;;;;;;;1.55;0.50;;;;;;;20.96;45.76;100456.72;6278086;28;20236;-76
2022/09/17 11:50:44;;;;;;;1.10;0.85;;;;;;;18.27;54.00;100470.31;6284502;28;20238;-78
2022/09/17 11:54:14;;;;;;;4.78;1.45;;;;;;;17.35;57.24;100474.69;6272978;28;21730;-76
2022/09/17 11:57:40;;;;;;;2.40;0.55;;;;;;;14.07;68.10;100473.66;6263884;28;20222;-75
2022/09/17 12:01:07;;;;;;;1.60;0.70;;;;;;;14.41;68.45;100477.09;6283730;28;20222;-77
2022/09/17 12:04:45;;;;;;;1.23;1.00;;;;;;;14.56;68.56;100474.53;6277329;28;20234;-78
2022/09/17 12:08:14;;;;;;;1.87;0.70;;;;;;;13.89;70.77;100481.97;6285246;28;20234;-76
2022/09/17 12:11:41;;;;;;;7.03;1.17;;;;;;;13.80;71.95;100479.38;6276849;28;20246;-78
2022/09/17 12:15:12;;;;;;;2.00;1.80;;;;;;;14.45;70.65;100462.19;6248552;28;20244;-78
2022/09/17 12:18:48;;;;;;;2.33;1.40;;;;;;;14.85;68.81;100455.81;6280202;28;20219;-77
2022/09/17 12:22:16;;;;;;;1.03;0.93;;;;;;;15.02;68.40;100457.44;6277654;28;20226;-75
2022/09/17 12:25:49;;;;;;;0.90;0.70;;;;;;;15.37;67.61;100448.84;6277809;28;20309;-76
2022/09/17 12:29:27;;;;;;;4.70;1.07;;;;;;;20.18;51.49;100432.88;6273512;28;20214;-77
2022/09/17 12:33:01;;;;;;;2.08;1.08;;;;;;;21.37;47.23;100427.09;6275299;28;20230;-78
2022/09/17 12:36:37;;;;;;;0.95;0.57;;;;;;;17.72;57.16;100449.16;6278945;28;20479;-77
2022/09/17 12:40:24;;;;;;;2.72;1.58;;;;;;;17.13;60.11;100431.19;6272042;28;20225;-76
2022/09/17 12:44:07;;;;;;;2.60;1.42;;;;;;;20.70;48.97;100421.97;6274027;28;20238;-76
2022/09/17 12:47:54;;;;;;;1.40;0.98;;;;;;;20.21;50.74;100417.97;6274673;28;20234;-77
2022/09/17 12:51:36;;;;;;;1.10;0.85;;;;;;;17.97;57.10;100425.94;6248842;28;1066137;-76
2022/09/17 12:55:17;;;;;;;1.85;0.80;;;;;;;20.49;52.19;100424.94;6253228;28;20230;-77
2022/09/17 12:58:53;;;;;;;1.55;1.13;;;;;;;19.42;53.94;100419.66;6278904;28;20546;-77
2022/09/17 13:02:22;;;;;;;2.88;0.70;;;;;;;17.47;59.93;100428.69;6284902;28;20234;-77
2022/09/17 13:06:07;;;;;;;5.88;1.50;;;;;;;17.48;61.73;100422.22;6275678;28;20250;-77
2022/09/17 13:09:46;;;;;;;1.55;1.30;;;;;;;17.05;62.55;100417.66;6279454;28;20230;-77
2022/09/17 13:13:24;;;;;;;1.00;0.88;;;;;;;17.51;61.44;100408.22;6287484;28;20234;-77
2022/09/17 13:16:52;;;;;;;2.70;1.08;;;;;;;16.08;65.79;100415.94;6281481;28;20230;-77
2022/09/17 13:20:20;;;;;;;2.30;1.45;;;;;;;15.13;69.48;100411.78;6281956;28;20322;-77
2022/09/17 13:23:43;;;;;;;2.90;1.30;;;;;;;15.01;71.37;100415.03;6279227;28;20230;-76
2022/09/17 13:27:06;;;;;;;3.73;1.20;;;;;;;14.18;76.17;100419.13;6284036;28;20257;-77
2022/09/17 13:30:57;;;;;;;2.03;0.73;;;;;;;13.94;75.63;100422.66;6268204;28;20231;-75
2022/09/17 13:34:31;;;;;;;2.27;1.63;;;;;;;13.71;75.91;100418.06;6282444;28;20541;-75
2022/09/17 13:37:56;;;;;;;2.83;1.37;;;;;;;14.01;75.86;100420.13;6278523;28;20231;-75
2022/09/17 13:41:19;;;;;;;1.07;0.70;;;;;;;14.18;75.44;100419.97;6274461;28;20226;-75
2022/09/17 13:44:44;;;;;;;3.73;1.80;;;;;;;16.16;72.90;100413.16;6286796;28;20230;-74
2022/09/17 13:48:09;;;;;;;0.80;0.80;;;;;;;22.09;52.70;100403.94;6278628;28;22032;-75
2022/09/17 13:51:53;;;;;;;2.22;1.00;;;;;;;21.73;53.11;100403.69;6267763;28;20493;-76
2022/09/17 13:55:31;;;;;;;1.48;0.73;;;;;;;21.51;53.10;100399.59;6290055;28;20242;-76
2022/09/17 13:58:52;;;;;;;0.85;0.77;;;;;;;21.00;54.21;100394.91;6284134;28;22399;-75
2022/09/17 14:02:29;;;;;;;1.40;0.57;;;;;;;18.48;61.35;100402.06;6290447;28;20750;-77
2022/09/17 14:05:50;;;;;;;2.70;0.80;;;;;;;16.78;67.21;100400.97;6266761;28;20234;-76
2022/09/17 14:09:35;;;;;;;1.15;1.00;;;;;;;15.51;72.59;100401.91;6279882;28;20256;-75
2022/09/17 14:13:34;;;;;;;3.27;0.87;;;;;;;15.31;73.79;100418.81;6273980;28;20245;-75
2022/09/17 14:16:55;;;;;;;1.83;0.83;;;;;;;15.41;75.04;100419.44;6275983;28;20226;-73
2022/09/17 14:20:19;;;;;;;2.13;0.97;;;;;;;15.66;75.78;100440.03;6273987;28;20230;-75
2022/09/17 14:23:45;;;;;;;3.40;1.17;;;;;;;15.50;73.66;100440.97;6270647;28;20608;-74
2022/09/17 14:27:17;;;;;;;1.13;0.73;;;;;;;15.66;72.02;100438.19;6272935;28;20235;-74
2022/09/17 14:30:38;;;;;;;2.43;0.80;;;;;;;15.54;70.79;100434.16;6285830;28;20226;-74
2022/09/17 14:34:03;;;;;;;0.50;0.50;;;;;;;15.78;71.13;100423.13;6281546;28;20238;-75
2022/09/17 14:37:24;;;;;;;0.50;0.40;;;;;;;17.24;66.07;100426.13;6262810;28;20671;-74
2022/09/17 14:40:48;;;;;;;0.30;0.30;;;;;;;19.32;60.09;100413.66;6280903;28;20330;-75
2022/09/17 14:44:18;;;;;;;0.77;0.50;;;;;;;17.41;64.52;100448.53;6281763;28;20259;-76
2022/09/17 14:47:38;;;;;;;1.23;0.70;;;;;;;15.88;69.35;100452.78;6281460;28;20894;-75
2022/09/17 14:51:29;;;;;;;0.30;0.30;;;;;;;15.34;70.61;100460.03;6275842;28;20226;-75
2022/09/17 14:55:09;;;;;;;0.47;0.47;;;;;;;15.18;72.27;100460.13;6274156;28;20238;-74
2022/09/17 14:58:33;;;;;;;2.90;1.13;;;;;;;15.08;73.61;100467.63;6269205;28;20329;-74
2022/09/17 15:01:56;;;;;;;0.93;0.60;;;;;;;15.03;74.24;100470.88;6258192;28;20231;-74
2022/09/17 15:05:28;;;;;;;0.43;0.43;;;;;;;15.05;75.08;100466.09;6282339;28;20226;-74
2022/09/17 15:08:49;;;;;;;4.07;0.60;;;;;;;15.20;74.36;100469.78;6271774;28;20234;-76
2022/09/17 15:12:17;;;;;;;0.53;0.50;;;;;;;15.14;74.66;100469.66;6280956;28;20262;-75
2022/09/17 15:15:39;;;;;;;0.50;0.50;;;;;;;14.97;74.80;100468.84;6289413;28;20234;-74
2022/09/17 15:19:03;;;;;;;1.60;1.50;;;;;;;15.27;74.08;100458.22;6277567;28;20397;-74
2022/09/17 15:22:28;;;;;;;0.77;0.70;;;;;;;15.28;73.82;100447.19;6279774;28;20218;-73
2022/09/17 15:25:52;;;;;;;6.23;1.40;;;;;;;15.42;73.72;100464.56;6282149;28;20309;-74
2022/09/17 15:29:14;;;;;;;1.00;0.97;;;;;;;15.39;73.56;100463.09;6272829;28;20231;-74
2022/09/17 15:32:37;;;;;;;1.30;1.00;;;;;;;15.21;73.38;100457.03;6273439;28;20223;-75
2022/09/17 15:36:07;;;;;;;0.80;0.77;;;;;;;15.26;72.29;100464.66;6284320;28;20230;-74
2022/09/17 15:39:29;;;;;;;1.47;1.00;;;;;;;14.80;73.58;100469.06;6282472;28;20238;-74
2022/09/17 15:42:52;;;;;;;0.83;0.83;;;;;;;15.04;74.86;100474.44;6272965;28;20234;-74
2022/09/17 15:46:25;;;;;;;1.60;0.87;;;;;;;14.92;74.19;100479.38;6279942;28;20502;-74
2022/09/17 15:50:07;;;;;;;0.80;0.47;;;;;;;14.97;74.54;100482.44;6291490;28;20239;-75
2022/09/17 15:53:30;;;;;;;1.47;0.90;;;;;;;14.70;74.67;100482.81;6281931;28;20218;-74
2022/09/17 15:56:57;;;;;;;0.70;0.70;;;;;;;14.77;74.84;100485.69;6287627;28;20234;-74
2022/09/17 16:00:18;;;;;;;1.23;0.77;;;;;;;14.78;74.15;100488.22;6285892;28;20246;-74